Kezdőlap
METAR-TAF:

METAR-TAF

Repülőterek :

Vinnicja, Ukrajna

földrajzi szélesség: 49-14-23N, földrajzi hosszúság: 028-36-50E, magasság: 974 m

Jelenlegi meteorológiai megfigyelések

A jelentés 34 perccel ezelõtt készült, 05:00 UTC
Dél-délnyugati szél 6 kt
Hőmérséklet 1°C
Páratartalom 86%
Légköri nyomás 1009 hPa
Látótávolság 10 km, vagy több
felhőtlen 1500 m magasságban, és nincs gomolyfelhõ

METAR: UKWW 090500Z 21003MPS CAVOK 01/M01 Q1009 NOSIG

Idő: 07:34 (05:34 UTC)

Előrejelzés

A jelentés 12 órával és 24 perccel ezelõtt készült, 17:10 UTC
Az előrejelzés 08-én 18 óra UTC és 09-én 03 óra UTC között érvényes
Délnyugati szél 10 kt
Látótávolság 10 km, vagy több
Szakadozott felhőzet 2000 lábon
08-én 18 óra UTC és 08-én 22 óra UTC között ideiglenes
Látótávolság: 3000 m
Szakadozott felhőzet 800 lábon
Párásság

TAF: UKWW 081710Z 0818/0903 22005MPS 9999 BKN020 TX01/0818Z TNM02/0903Z TEMPO 0818/0822 3000 BR BKN008

Meteorológiai megfigyelések és előrejelzések több, mint 4000 repülőtéren (METAR és TAF jelentéseket).

A térképen piros és sárga pontok jelzik az elérhető meteorológiai állomásokat.

Mozgassa az egeret a pont fölött, hogy megjelenjen az állomás neve.

Azután kattintson az időjárási megfigyelések és előrejelzések megtekintéséhez.

A térkép megváltoztatása: kattintson a fekete keresztel jelölt zöld gombra ráközelítéshez, a vonallal jelölt zöld gombra távolításhoz, vagy a zöld nyilakra a szomszédos térképek eléréséhez.


METAR-TAF: